createdAt,value
2017-10-11T00:00:18.609Z,0
2017-10-11T00:01:20.057Z,0
2017-10-11T00:02:21.536Z,0
2017-10-11T00:03:22.970Z,0
2017-10-11T00:04:24.448Z,0
2017-10-11T00:05:25.915Z,0
2017-10-11T00:06:28.319Z,0
2017-10-11T00:07:29.762Z,0
2017-10-11T00:08:31.331Z,0
2017-10-11T00:09:32.807Z,0
2017-10-11T00:10:35.236Z,0
2017-10-11T00:11:36.784Z,0
2017-10-11T00:12:38.286Z,0
2017-10-11T00:13:40.688Z,0
2017-10-11T00:14:42.165Z,0
2017-10-11T00:15:43.586Z,0
2017-10-11T00:16:46.041Z,0
2017-10-11T00:17:47.471Z,0
2017-10-11T00:18:48.960Z,0
2017-10-11T00:19:50.425Z,0
2017-10-11T00:20:51.869Z,0
2017-10-11T00:21:53.394Z,0
2017-10-11T00:22:54.929Z,0
2017-10-11T00:23:56.425Z,0
2017-10-11T00:24:57.871Z,0
2017-10-11T00:25:59.366Z,0
2017-10-11T00:27:00.841Z,0
2017-10-11T00:28:02.339Z,0
2017-10-11T00:29:03.832Z,0
2017-10-11T00:30:05.479Z,0
2017-10-11T00:31:07.979Z,0
2017-10-11T00:32:09.527Z,0
2017-10-11T00:33:11.093Z,0
2017-10-11T00:34:12.519Z,0
2017-10-11T00:35:14.001Z,0
2017-10-11T00:36:15.514Z,0
2017-10-11T00:37:16.972Z,0
2017-10-11T00:38:18.500Z,0
2017-10-11T00:39:19.974Z,0
2017-10-11T00:40:21.444Z,0
2017-10-11T00:41:22.938Z,0
2017-10-11T00:42:24.428Z,0
2017-10-11T00:43:25.877Z,0
2017-10-11T00:44:27.404Z,0
2017-10-11T00:45:29.988Z,0
2017-10-11T00:46:31.445Z,0
2017-10-11T00:47:32.900Z,0
2017-10-11T00:48:34.383Z,0
2017-10-11T00:49:35.868Z,0
2017-10-11T00:50:38.596Z,0
2017-10-11T00:51:40.127Z,0
2017-10-11T00:52:41.568Z,0
2017-10-11T00:53:44.228Z,0
2017-10-11T00:54:46.809Z,0
2017-10-11T00:55:48.290Z,0
2017-10-11T00:56:49.789Z,0
2017-10-11T00:57:51.211Z,0
2017-10-11T00:58:52.650Z,0
2017-10-11T00:59:54.099Z,0
2017-10-11T01:00:55.531Z,0
2017-10-11T01:01:56.963Z,0
2017-10-11T01:02:58.441Z,0
2017-10-11T01:03:59.866Z,0
2017-10-11T01:05:01.292Z,0
2017-10-11T01:06:02.784Z,0
2017-10-11T01:07:05.391Z,0
2017-10-11T01:08:06.854Z,0
2017-10-11T01:09:08.283Z,0
2017-10-11T01:10:09.752Z,0
2017-10-11T01:11:12.285Z,0
2017-10-11T01:12:13.758Z,0
2017-10-11T01:13:15.207Z,0
2017-10-11T01:14:16.738Z,0
2017-10-11T01:15:18.180Z,0
2017-10-11T01:16:19.720Z,0
2017-10-11T01:17:21.150Z,0
2017-10-11T01:18:22.618Z,0
2017-10-11T01:19:24.109Z,0
2017-10-11T01:20:25.542Z,0
2017-10-11T01:21:27.072Z,0
2017-10-11T01:22:28.524Z,0
2017-10-11T01:23:31.142Z,0
2017-10-11T01:24:32.597Z,0
2017-10-11T01:25:34.097Z,0
2017-10-11T01:26:35.571Z,0
2017-10-11T01:27:38.090Z,0
2017-10-11T01:28:40.663Z,0
2017-10-11T01:29:42.150Z,0
2017-10-11T01:30:44.660Z,0
2017-10-11T01:31:45.002Z,0
2017-10-11T01:32:46.453Z,0
2017-10-11T01:33:47.870Z,0
2017-10-11T01:34:49.299Z,0
2017-10-11T01:35:50.746Z,0
2017-10-11T01:36:52.185Z,0
2017-10-11T01:37:53.779Z,0
2017-10-11T01:38:55.970Z,0
2017-10-11T01:39:57.460Z,0
2017-10-11T01:40:58.905Z,0
2017-10-11T01:42:00.356Z,0
2017-10-11T01:43:01.874Z,0
2017-10-11T01:44:03.315Z,0
2017-10-11T01:45:04.924Z,0
2017-10-11T01:46:06.406Z,0
2017-10-11T01:47:07.894Z,0
2017-10-11T01:48:09.383Z,0
2017-10-11T01:49:10.835Z,0
2017-10-11T01:50:12.268Z,0
2017-10-11T01:51:13.713Z,0
2017-10-11T01:52:15.336Z,0
2017-10-11T01:53:17.841Z,0
2017-10-11T01:54:19.292Z,0
2017-10-11T01:55:20.829Z,0
2017-10-11T01:56:22.349Z,0
2017-10-11T01:57:23.937Z,0
2017-10-11T01:58:25.358Z,0
2017-10-11T01:59:27.817Z,0
2017-10-11T02:00:29.334Z,0
2017-10-11T02:01:30.756Z,0
2017-10-11T02:02:32.192Z,0
2017-10-11T02:03:33.683Z,0
2017-10-11T02:04:35.156Z,0
2017-10-11T02:05:36.582Z,0
2017-10-11T02:06:38.013Z,0
2017-10-11T02:07:39.544Z,0
2017-10-11T02:08:41.060Z,0
2017-10-11T02:09:43.692Z,0
2017-10-11T02:10:45.197Z,0
2017-10-11T02:11:46.711Z,0
2017-10-11T02:12:49.269Z,0
2017-10-11T02:13:51.797Z,0
2017-10-11T02:14:54.336Z,0
2017-10-11T02:15:55.781Z,0
2017-10-11T02:16:57.342Z,0
2017-10-11T02:17:59.984Z,0
2017-10-11T02:19:03.581Z,0
2017-10-11T02:20:05.089Z,0
2017-10-11T02:21:06.503Z,0
2017-10-11T02:22:08.035Z,0
2017-10-11T02:23:09.494Z,0
2017-10-11T02:24:10.971Z,0
2017-10-11T02:25:12.435Z,0
2017-10-11T02:26:13.938Z,0
2017-10-11T02:27:16.285Z,0
2017-10-11T02:28:18.800Z,0
2017-10-11T02:29:20.284Z,0
2017-10-11T02:30:21.765Z,0
2017-10-11T02:31:23.288Z,0
2017-10-11T02:32:24.774Z,0
2017-10-11T02:33:26.307Z,0
2017-10-11T02:34:27.779Z,0
2017-10-11T02:35:29.279Z,0
2017-10-11T02:36:30.806Z,0
2017-10-11T02:37:32.287Z,0
2017-10-11T02:38:33.778Z,0
2017-10-11T02:39:35.245Z,0
2017-10-11T02:40:37.806Z,0
2017-10-11T02:41:39.300Z,0
2017-10-11T02:42:40.771Z,0
2017-10-11T02:43:42.247Z,0
2017-10-11T02:44:44.722Z,0
2017-10-11T02:45:45.086Z,0
2017-10-11T02:46:46.549Z,0
2017-10-11T02:47:48.050Z,0
2017-10-11T02:48:49.539Z,0
2017-10-11T02:49:53.124Z,0
2017-10-11T02:50:56.750Z,0
2017-10-11T02:51:57.099Z,0
2017-10-11T02:52:59.680Z,0
2017-10-11T02:54:01.196Z,0
2017-10-11T02:55:02.669Z,0
2017-10-11T02:56:04.137Z,0
2017-10-11T02:57:05.545Z,0
2017-10-11T02:58:07.037Z,0
2017-10-11T02:59:08.469Z,0
2017-10-11T03:00:11.077Z,0
2017-10-11T03:01:12.558Z,0
2017-10-11T03:02:15.112Z,0
2017-10-11T03:03:16.589Z,0
2017-10-11T03:04:20.232Z,0
2017-10-11T03:05:21.687Z,0
2017-10-11T03:06:23.127Z,0
2017-10-11T03:07:24.612Z,0
2017-10-11T03:08:26.075Z,0
2017-10-11T03:09:27.585Z,0
2017-10-11T03:10:29.042Z,0
2017-10-11T03:11:30.529Z,0
2017-10-11T03:12:31.983Z,0
2017-10-11T03:13:33.401Z,0
2017-10-11T03:14:34.836Z,0
2017-10-11T03:15:36.352Z,0
2017-10-11T03:16:37.756Z,0
2017-10-11T03:17:41.606Z,0
2017-10-11T03:18:43.122Z,0
2017-10-11T03:19:44.573Z,0
2017-10-11T03:20:46.080Z,0
2017-10-11T03:21:47.581Z,0
2017-10-11T03:22:50.147Z,0
2017-10-11T03:23:51.613Z,0
2017-10-11T03:24:54.099Z,0
2017-10-11T03:25:56.688Z,0
2017-10-11T03:26:58.086Z,0
2017-10-11T03:27:59.497Z,0
2017-10-11T03:29:00.910Z,0
2017-10-11T03:30:02.346Z,0
2017-10-11T03:31:03.774Z,0
2017-10-11T03:32:05.253Z,0
2017-10-11T03:33:06.727Z,0
2017-10-11T03:34:08.738Z,0
2017-10-11T03:35:10.245Z,0
2017-10-11T03:36:11.729Z,0
2017-10-11T03:37:14.254Z,0
2017-10-11T03:38:15.689Z,0
2017-10-11T03:39:17.153Z,0
2017-10-11T03:40:18.662Z,0
2017-10-11T03:41:20.187Z,0
2017-10-11T03:42:21.636Z,0
2017-10-11T03:43:23.115Z,0
2017-10-11T03:44:24.589Z,0
2017-10-11T03:45:26.100Z,0
2017-10-11T03:46:28.600Z,0
2017-10-11T03:47:30.047Z,0
2017-10-11T03:48:32.578Z,0
2017-10-11T03:49:34.095Z,0
2017-10-11T03:50:35.545Z,0
2017-10-11T03:51:37.059Z,0
2017-10-11T03:52:38.501Z,0
2017-10-11T03:53:40.104Z,0
2017-10-11T03:54:41.587Z,0
2017-10-11T03:55:43.105Z,0
2017-10-11T03:56:44.660Z,0
2017-10-11T03:57:46.223Z,0
2017-10-11T03:58:47.669Z,0
2017-10-11T03:59:50.306Z,0
2017-10-11T04:00:51.832Z,0
2017-10-11T04:01:53.330Z,0
2017-10-11T04:02:54.785Z,0
2017-10-11T04:03:57.337Z,0
2017-10-11T04:04:58.800Z,0
2017-10-11T04:06:00.253Z,0
2017-10-11T04:07:01.736Z,0
2017-10-11T04:08:03.231Z,0
2017-10-11T04:09:04.655Z,0
2017-10-11T04:10:06.128Z,0
2017-10-11T04:11:07.616Z,0
2017-10-11T04:12:09.054Z,0
2017-10-11T04:13:10.463Z,0
2017-10-11T04:14:11.961Z,0
2017-10-11T04:15:13.398Z,0
2017-10-11T04:16:14.851Z,0
2017-10-11T04:17:16.288Z,0
2017-10-11T04:18:17.738Z,0
2017-10-11T04:19:19.193Z,0
2017-10-11T04:20:20.641Z,0
2017-10-11T04:21:22.207Z,0
2017-10-11T04:22:23.702Z,0
2017-10-11T04:23:25.182Z,0
2017-10-11T04:24:26.687Z,0
2017-10-11T04:25:28.199Z,0
2017-10-11T04:26:29.689Z,0
2017-10-11T04:27:31.214Z,0
2017-10-11T04:28:32.629Z,0
2017-10-11T04:29:35.142Z,0
2017-10-11T04:30:36.614Z,0
2017-10-11T04:31:38.084Z,0
2017-10-11T04:32:40.587Z,0
2017-10-11T04:33:42.016Z,0
2017-10-11T04:34:43.458Z,0
2017-10-11T04:35:44.862Z,0
2017-10-11T04:36:46.327Z,0
2017-10-11T04:37:47.900Z,0
2017-10-11T04:38:49.360Z,0
2017-10-11T04:39:50.787Z,0
2017-10-11T04:40:52.280Z,0
2017-10-11T04:41:54.807Z,0
2017-10-11T04:42:56.255Z,0
2017-10-11T04:43:57.738Z,0
2017-10-11T04:44:59.202Z,0
2017-10-11T04:46:00.627Z,0
2017-10-11T04:47:02.152Z,0
2017-10-11T04:48:03.707Z,0
2017-10-11T04:49:05.123Z,0
2017-10-11T04:50:06.632Z,0
2017-10-11T04:51:08.193Z,0
2017-10-11T04:52:09.745Z,0
2017-10-11T04:53:11.282Z,0
2017-10-11T04:54:13.825Z,0
2017-10-11T04:55:15.266Z,0
2017-10-11T04:56:17.891Z,0
2017-10-11T04:57:19.380Z,0
2017-10-11T04:58:20.838Z,0
2017-10-11T04:59:22.277Z,0
2017-10-11T05:00:24.775Z,0
2017-10-11T05:01:26.204Z,0
2017-10-11T05:02:27.709Z,0
2017-10-11T05:03:29.165Z,0
2017-10-11T05:04:30.593Z,0
2017-10-11T05:05:32.017Z,0
2017-10-11T05:06:33.448Z,4
2017-10-11T05:07:34.895Z,4
2017-10-11T05:08:36.345Z,0
2017-10-11T05:09:37.780Z,4
2017-10-11T05:10:39.207Z,4
2017-10-11T05:11:40.665Z,4
2017-10-11T05:12:42.162Z,8
2017-10-11T05:13:43.640Z,8
2017-10-11T05:14:46.146Z,8
2017-10-11T05:15:47.627Z,12
2017-10-11T05:16:49.078Z,16
2017-10-11T05:17:50.547Z,20
2017-10-11T05:18:52.120Z,20
2017-10-11T05:19:53.557Z,24
2017-10-11T05:20:55.013Z,28
2017-10-11T05:21:56.448Z,36
2017-10-11T05:22:57.927Z,40
2017-10-11T05:23:59.442Z,44
2017-10-11T05:25:00.868Z,52
2017-10-11T05:26:02.294Z,60
2017-10-11T05:27:03.796Z,68
2017-10-11T05:28:05.292Z,80
2017-10-11T05:29:06.710Z,92
2017-10-11T05:30:08.201Z,104
2017-10-11T05:31:09.695Z,116
2017-10-11T05:32:11.193Z,128
2017-10-11T05:33:12.650Z,140
2017-10-11T05:34:14.096Z,156
2017-10-11T05:35:16.597Z,172
2017-10-11T05:36:18.087Z,188
2017-10-11T05:37:19.643Z,208
2017-10-11T05:38:21.062Z,224
2017-10-11T05:39:22.571Z,244
2017-10-11T05:40:24.123Z,264
2017-10-11T05:41:25.635Z,284
2017-10-11T05:42:29.160Z,304
2017-10-11T05:43:30.634Z,304
2017-10-11T05:44:32.057Z,320
2017-10-11T05:45:33.538Z,344
2017-10-11T05:46:36.690Z,372
2017-10-11T05:47:38.343Z,404
2017-10-11T05:48:42.031Z,448
2017-10-11T05:49:51.224Z,472
2017-10-11T05:50:53.006Z,492
2017-10-11T05:51:54.577Z,472
2017-10-11T05:52:56.050Z,476
2017-10-11T05:53:57.599Z,476
2017-10-11T05:54:59.101Z,472
2017-10-11T05:56:00.744Z,432
2017-10-11T05:57:02.344Z,420
2017-10-11T05:58:04.031Z,516
2017-10-11T05:59:05.592Z,692
2017-10-11T06:00:07.373Z,784
2017-10-11T06:01:10.508Z,624
2017-10-11T06:02:12.084Z,652
2017-10-11T06:03:13.945Z,484
2017-10-11T06:04:17.507Z,388
2017-10-11T06:05:20.687Z,448
2017-10-11T06:06:22.733Z,460
2017-10-11T06:08:28.771Z,488
2017-10-11T06:09:49.532Z,404
2017-10-11T06:13:57.990Z,680
2017-10-11T06:15:09.358Z,836
2017-10-11T06:16:13.354Z,792
2017-10-11T06:17:16.718Z,688
2017-10-11T06:19:36.166Z,656
2017-10-11T06:20:47.425Z,656
2017-10-11T06:21:48.850Z,548
2017-10-11T06:22:50.361Z,548
2017-10-11T06:23:51.871Z,616
2017-10-11T06:24:53.346Z,680
2017-10-11T06:25:54.782Z,724
2017-10-11T06:26:56.231Z,744
2017-10-11T06:27:57.636Z,740
2017-10-11T06:28:59.103Z,716
2017-10-11T06:30:00.556Z,672
2017-10-11T06:31:02.094Z,608
2017-10-11T06:32:03.544Z,588
2017-10-11T06:33:05.080Z,576
2017-10-11T06:34:06.555Z,592
2017-10-11T06:35:08.036Z,652
2017-10-11T06:36:09.508Z,676
2017-10-11T06:37:11.027Z,664
2017-10-11T06:38:12.484Z,592
2017-10-11T06:39:13.941Z,552
2017-10-11T06:40:15.518Z,612
2017-10-11T06:41:16.998Z,608
2017-10-11T06:42:18.490Z,812
2017-10-11T06:43:19.980Z,820
2017-10-11T06:44:21.495Z,840
2017-10-11T06:45:22.992Z,928
2017-10-11T06:46:24.474Z,844
2017-10-11T06:47:25.938Z,780
2017-10-11T06:48:27.420Z,740
2017-10-11T06:49:28.895Z,792
2017-10-11T06:50:30.454Z,908
2017-10-11T06:51:32.050Z,852
2017-10-11T06:52:33.589Z,1084
2017-10-11T06:53:35.024Z,1260
2017-10-11T06:54:36.557Z,1348
2017-10-11T06:55:38.069Z,1364
2017-10-11T06:56:39.570Z,1504
2017-10-11T06:57:41.019Z,1752
2017-10-11T06:58:42.521Z,2108
2017-10-11T06:59:44.005Z,2540
2017-10-11T07:00:45.521Z,3040
2017-10-11T07:01:46.992Z,3308
2017-10-11T07:02:48.497Z,3000
2017-10-11T07:03:49.956Z,2660
2017-10-11T07:04:51.454Z,2204
2017-10-11T07:05:52.932Z,1964
2017-10-11T07:06:54.427Z,1624
2017-10-11T07:07:55.909Z,1700
2017-10-11T07:08:57.374Z,1488
2017-10-11T07:09:58.888Z,1124
2017-10-11T07:11:00.383Z,1108
2017-10-11T07:12:01.917Z,1140
2017-10-11T07:13:03.419Z,1712
2017-10-11T07:14:04.946Z,2032
2017-10-11T07:15:06.449Z,2108
2017-10-11T07:16:07.943Z,2144
2017-10-11T07:17:09.436Z,2176
2017-10-11T07:18:10.953Z,2152
2017-10-11T07:19:12.464Z,1936
2017-10-11T07:20:14.060Z,1856
2017-10-11T07:21:15.572Z,2208
2017-10-11T07:22:17.075Z,2492
2017-10-11T07:23:18.593Z,2312
2017-10-11T07:24:20.087Z,1924
2017-10-11T07:25:21.598Z,1564
2017-10-11T07:26:23.095Z,1312
2017-10-11T07:27:24.572Z,1172
2017-10-11T07:28:26.069Z,1092
2017-10-11T07:29:27.552Z,1200
2017-10-11T07:30:29.058Z,1072
2017-10-11T07:31:30.524Z,908
2017-10-11T07:32:32.063Z,832
2017-10-11T07:33:33.562Z,776
2017-10-11T07:34:35.163Z,836
2017-10-11T07:35:36.678Z,920
2017-10-11T07:36:38.161Z,952
2017-10-11T07:37:39.785Z,944
2017-10-11T07:38:41.298Z,948
2017-10-11T07:39:42.775Z,1016
2017-10-11T07:40:44.261Z,1116
2017-10-11T07:41:45.769Z,1268
2017-10-11T07:42:47.233Z,1320
2017-10-11T07:43:48.758Z,1384
2017-10-11T07:44:50.225Z,1604
2017-10-11T07:45:51.733Z,1756
2017-10-11T07:46:53.232Z,1388
2017-10-11T07:47:54.835Z,1404
2017-10-11T07:48:56.329Z,1420
2017-10-11T07:49:57.797Z,1544
2017-10-11T07:50:59.286Z,1564
2017-10-11T07:52:00.774Z,1568
2017-10-11T07:53:02.309Z,1608
2017-10-11T07:54:03.790Z,1688
2017-10-11T07:55:05.337Z,1516
2017-10-11T07:56:06.831Z,1444
2017-10-11T07:57:08.344Z,1540
2017-10-11T07:58:09.944Z,1796
2017-10-11T07:59:11.436Z,2164
2017-10-11T08:00:12.944Z,2392
2017-10-11T08:01:14.394Z,2752
2017-10-11T08:02:15.967Z,3044
2017-10-11T08:03:17.512Z,3060
2017-10-11T08:04:19.008Z,2880
2017-10-11T08:05:20.527Z,2752
2017-10-11T08:06:21.992Z,2436
2017-10-11T08:07:23.484Z,1952
2017-10-11T08:08:24.967Z,2676
2017-10-11T08:09:26.453Z,2788
2017-10-11T08:10:27.925Z,2720
2017-10-11T08:11:29.419Z,2940
2017-10-11T08:12:30.924Z,3244
2017-10-11T08:13:32.465Z,3520
2017-10-11T08:14:33.951Z,3904
2017-10-11T08:15:35.413Z,4040
2017-10-11T08:16:36.911Z,4380
2017-10-11T08:17:38.387Z,4380
2017-10-11T08:18:39.928Z,4596
2017-10-11T08:19:41.400Z,4740
2017-10-11T08:20:42.867Z,4940
2017-10-11T08:21:44.395Z,5012
2017-10-11T08:22:45.876Z,5124
2017-10-11T08:23:47.386Z,5224
2017-10-11T08:24:48.919Z,5396
2017-10-11T08:25:50.419Z,5480
2017-10-11T08:26:51.935Z,5544
2017-10-11T08:27:53.441Z,5564
2017-10-11T08:28:54.953Z,5556
2017-10-11T08:29:56.488Z,5628
2017-10-11T08:30:58.030Z,5712
2017-10-11T08:31:59.479Z,5796
2017-10-11T08:33:01.092Z,5624
2017-10-11T08:34:02.578Z,5744
2017-10-11T08:35:04.128Z,5656
2017-10-11T08:36:06.770Z,5596
2017-10-11T08:37:08.272Z,5512
2017-10-11T08:38:09.798Z,5684
2017-10-11T08:39:11.325Z,5900
2017-10-11T08:40:12.783Z,6308
2017-10-11T08:41:14.290Z,6904
2017-10-11T08:42:15.849Z,7916
2017-10-11T08:43:17.325Z,8320
2017-10-11T08:44:18.869Z,7524
2017-10-11T08:45:20.386Z,7784
2017-10-11T08:46:21.958Z,8216
2017-10-11T08:47:23.487Z,7928
2017-10-11T08:48:24.993Z,9236
2017-10-11T08:49:26.504Z,8328
2017-10-11T08:50:27.991Z,8240
2017-10-11T08:51:29.516Z,10328
2017-10-11T08:52:31.018Z,9432
2017-10-11T08:53:32.596Z,10848
2017-10-11T08:54:34.058Z,11112
2017-10-11T08:55:35.583Z,10132
2017-10-11T08:56:37.091Z,10224
2017-10-11T08:57:38.624Z,11832
2017-10-11T08:58:40.119Z,11064
2017-10-11T08:59:41.591Z,11496
2017-10-11T09:00:43.129Z,12032
2017-10-11T09:01:44.631Z,11544
2017-10-11T09:02:46.118Z,9376
2017-10-11T09:03:47.595Z,10120
2017-10-11T09:04:49.078Z,9908
2017-10-11T09:05:50.580Z,10464
2017-10-11T09:06:52.090Z,8900
2017-10-11T09:07:53.666Z,10368
2017-10-11T09:08:55.171Z,10112
2017-10-11T09:09:56.667Z,11244
2017-10-11T09:10:58.220Z,11360
2017-10-11T09:11:59.745Z,10836
2017-10-11T09:13:01.260Z,9072
2017-10-11T09:14:02.777Z,8836
2017-10-11T09:15:04.215Z,8196
2017-10-11T09:16:06.853Z,7984
2017-10-11T09:17:09.345Z,8688
2017-10-11T09:18:10.822Z,8528
2017-10-11T09:19:12.348Z,8148
2017-10-11T09:20:14.883Z,7308
2017-10-11T09:21:16.364Z,7472
2017-10-11T09:22:18.894Z,7584
2017-10-11T09:23:20.423Z,8696
2017-10-11T09:24:21.931Z,12956
2017-10-11T09:25:23.409Z,12276
2017-10-11T09:26:24.878Z,13192
2017-10-11T09:27:26.374Z,12708
2017-10-11T09:28:30.973Z,11568
2017-10-11T09:29:32.462Z,9312
2017-10-11T09:30:33.928Z,8476
2017-10-11T09:31:35.413Z,9520
2017-10-11T09:32:36.880Z,11728
2017-10-11T09:33:40.393Z,12580
2017-10-11T09:34:42.805Z,14624
2017-10-11T09:35:45.293Z,11932
2017-10-11T09:36:46.818Z,12060
2017-10-11T09:37:48.329Z,13568
2017-10-11T09:38:50.868Z,12756
2017-10-11T09:39:52.332Z,12796
2017-10-11T09:40:53.776Z,13624
2017-10-11T09:41:55.311Z,11144
2017-10-11T09:42:57.839Z,11476
2017-10-11T09:44:01.459Z,11464
2017-10-11T09:45:02.926Z,13512
2017-10-11T09:46:04.428Z,13244
2017-10-11T09:47:05.998Z,13208
2017-10-11T09:48:07.588Z,14612
2017-10-11T09:49:09.111Z,15424
2017-10-11T09:50:10.668Z,11232
2017-10-11T09:51:13.238Z,14200
2017-10-11T09:52:14.773Z,16224
2017-10-11T09:53:16.371Z,18304
2017-10-11T09:54:18.961Z,19008
2017-10-11T09:55:20.445Z,19520
2017-10-11T09:56:23.016Z,17408
2017-10-11T09:57:24.545Z,20640
2017-10-11T09:58:27.058Z,20640
2017-10-11T09:59:29.562Z,21600
2017-10-11T10:00:32.014Z,20896
2017-10-11T10:01:34.552Z,14356
2017-10-11T10:02:36.075Z,13404
2017-10-11T10:03:37.533Z,10976
2017-10-11T10:04:40.081Z,11944
2017-10-11T10:05:41.566Z,16736
2017-10-11T10:06:43.040Z,16512
2017-10-11T10:07:45.528Z,15936
2017-10-11T10:08:49.177Z,12928
2017-10-11T10:09:50.719Z,15936
2017-10-11T10:10:52.242Z,11956
2017-10-11T10:11:53.772Z,11540
2017-10-11T10:12:55.259Z,9536
2017-10-11T10:13:56.771Z,11028
2017-10-11T10:14:58.291Z,16384
2017-10-11T10:15:59.825Z,19584
2017-10-11T10:17:01.313Z,20352
2017-10-11T10:18:02.785Z,22496
2017-10-11T10:19:05.252Z,23072
2017-10-11T10:20:06.794Z,18688
2017-10-11T10:21:08.268Z,10444
2017-10-11T10:22:09.778Z,23520
2017-10-11T10:23:11.265Z,14676
2017-10-11T10:24:12.724Z,15044
2017-10-11T10:25:14.204Z,17184
2017-10-11T10:26:15.681Z,14928
2017-10-11T10:27:17.140Z,13972
2017-10-11T10:28:18.701Z,12852
2017-10-11T10:29:21.244Z,13204
2017-10-11T10:30:22.808Z,14716
2017-10-11T10:31:24.315Z,15840
2017-10-11T10:32:25.902Z,17408
2017-10-11T10:33:27.373Z,12524
2017-10-11T10:34:28.870Z,12528
2017-10-11T10:35:30.408Z,13024
2017-10-11T10:36:31.957Z,14616
2017-10-11T10:37:34.468Z,26016
2017-10-11T10:38:36.891Z,19936
2017-10-11T10:39:38.401Z,16512
2017-10-11T10:40:40.996Z,33536
2017-10-11T10:41:43.523Z,24864
2017-10-11T10:42:45.048Z,13476
2017-10-11T10:43:46.582Z,11536
2017-10-11T10:44:50.268Z,12416
2017-10-11T10:45:51.797Z,15436
2017-10-11T10:46:53.334Z,27744
2017-10-11T10:47:55.839Z,19744
2017-10-11T10:48:57.383Z,13596
2017-10-11T10:49:58.902Z,12184
2017-10-11T10:51:00.397Z,11204
2017-10-11T10:52:01.906Z,13388
2017-10-11T10:53:03.375Z,15904
2017-10-11T10:54:04.899Z,13680
2017-10-11T10:55:06.394Z,10200
2017-10-11T10:56:07.869Z,9216
2017-10-11T10:57:09.305Z,10292
2017-10-11T10:58:10.828Z,10524
2017-10-11T10:59:12.281Z,10504
2017-10-11T11:00:13.785Z,10752
2017-10-11T11:01:15.295Z,12952
2017-10-11T11:02:16.814Z,15732
2017-10-11T11:03:18.325Z,14600
2017-10-11T11:04:19.839Z,12440
2017-10-11T11:05:21.386Z,12040
2017-10-11T11:06:22.870Z,12984
2017-10-11T11:07:25.382Z,14164
2017-10-11T11:08:26.896Z,13140
2017-10-11T11:09:28.391Z,12508
2017-10-11T11:10:29.895Z,12664
2017-10-11T11:11:31.382Z,13248
2017-10-11T11:12:32.911Z,14568
2017-10-11T11:13:35.456Z,13344
2017-10-11T11:14:55.793Z,13028
2017-10-11T11:15:57.284Z,11716
2017-10-11T11:16:58.839Z,10520
2017-10-11T11:18:00.286Z,9460
2017-10-11T11:19:01.748Z,11284
2017-10-11T11:20:04.264Z,13304
2017-10-11T11:21:05.850Z,15496
2017-10-11T11:22:07.331Z,8948
2017-10-11T11:23:08.836Z,8440
2017-10-11T11:24:10.367Z,8424
2017-10-11T11:25:11.854Z,9716
2017-10-11T11:26:13.333Z,9152
2017-10-11T11:27:14.838Z,9456
2017-10-11T11:28:16.426Z,10468
2017-10-11T11:29:17.942Z,11036
2017-10-11T11:30:19.475Z,9384
2017-10-11T11:31:21.022Z,8016
2017-10-11T11:32:22.597Z,8056
2017-10-11T11:33:24.158Z,8240
2017-10-11T11:34:25.695Z,8900
2017-10-11T11:35:27.219Z,8796
2017-10-11T11:36:41.584Z,7940
2017-10-11T11:37:44.298Z,7740
2017-10-11T11:38:50.143Z,7516
2017-10-11T11:39:51.655Z,7528
2017-10-11T11:40:53.230Z,7536
2017-10-11T11:41:55.937Z,7560
2017-10-11T11:42:58.249Z,7956
2017-10-11T11:44:00.535Z,8688
2017-10-11T11:45:02.845Z,9388
2017-10-11T11:46:04.881Z,8680
2017-10-11T11:47:06.790Z,8184
2017-10-11T11:48:08.415Z,8552
2017-10-11T11:49:10.170Z,11280
2017-10-11T11:50:11.636Z,9168
2017-10-11T11:51:13.133Z,10560
2017-10-11T11:52:14.614Z,11692
2017-10-11T11:53:16.114Z,13544
2017-10-11T11:54:17.657Z,15232
2017-10-11T11:55:19.188Z,15756
2017-10-11T11:56:20.647Z,16928
2017-10-11T11:57:22.148Z,15492
2017-10-11T11:58:23.621Z,15124
2017-10-11T11:59:26.081Z,12452
2017-10-11T12:00:27.524Z,12576
2017-10-11T12:01:29.029Z,13216
2017-10-11T12:02:30.434Z,17376
2017-10-11T12:03:31.919Z,14324
2017-10-11T12:04:33.419Z,9784
2017-10-11T12:05:34.916Z,10548
2017-10-11T12:06:36.345Z,9376
2017-10-11T12:07:37.775Z,8160
2017-10-11T12:08:39.204Z,9168
2017-10-11T12:09:40.662Z,9840
2017-10-11T12:10:43.168Z,10088
2017-10-11T12:11:44.647Z,10556
2017-10-11T12:12:46.181Z,9692
2017-10-11T12:13:47.686Z,9008
2017-10-11T12:14:49.184Z,8996
2017-10-11T12:15:50.709Z,7420
2017-10-11T12:16:52.206Z,6460
2017-10-11T12:17:53.706Z,6824
2017-10-11T12:18:56.174Z,5932
2017-10-11T12:19:58.668Z,5360
2017-10-11T12:21:00.165Z,5768
2017-10-11T12:22:01.678Z,5924
2017-10-11T12:23:03.127Z,6500
2017-10-11T12:24:04.606Z,5464
2017-10-11T12:25:06.094Z,5508
2017-10-11T12:26:07.626Z,4616
2017-10-11T12:27:09.116Z,4752
2017-10-11T12:28:11.639Z,4820
2017-10-11T12:29:14.097Z,4516
2017-10-11T12:30:15.553Z,4696
2017-10-11T12:31:17.045Z,5280
2017-10-11T12:32:18.503Z,4316
2017-10-11T12:33:19.957Z,4232
2017-10-11T12:34:21.417Z,4644
2017-10-11T12:35:22.823Z,5184
2017-10-11T12:36:24.235Z,5564
2017-10-11T12:37:25.647Z,5604
2017-10-11T12:38:27.060Z,4880
2017-10-11T12:39:28.486Z,3744
2017-10-11T12:40:29.987Z,3164
2017-10-11T12:41:31.457Z,3072
2017-10-11T12:42:32.915Z,3304
2017-10-11T12:43:34.346Z,3860
2017-10-11T12:44:35.864Z,4068
2017-10-11T12:45:37.316Z,3560
2017-10-11T12:46:38.735Z,3268
2017-10-11T12:47:40.199Z,3208
2017-10-11T12:48:41.646Z,3364
2017-10-11T12:49:43.078Z,3496
2017-10-11T12:50:44.502Z,3340
2017-10-11T12:51:45.951Z,3704
2017-10-11T12:52:47.409Z,4172
2017-10-11T12:53:48.868Z,3604
2017-10-11T12:54:50.341Z,3080
2017-10-11T12:55:51.797Z,2864
2017-10-11T12:56:53.243Z,2956
2017-10-11T12:57:55.635Z,3444
2017-10-11T12:58:57.049Z,3892
2017-10-11T12:59:58.463Z,3284
2017-10-11T13:01:00.906Z,4012
2017-10-11T13:02:03.433Z,4444
2017-10-11T13:03:04.913Z,3848
2017-10-11T13:04:06.329Z,4304
2017-10-11T13:05:07.749Z,4844
2017-10-11T13:06:09.295Z,4712
2017-10-11T13:07:10.719Z,3484
2017-10-11T13:08:13.170Z,3028
2017-10-11T13:09:14.580Z,3132
2017-10-11T13:10:16.031Z,3328
2017-10-11T13:11:17.439Z,3568
2017-10-11T13:12:19.860Z,3852
2017-10-11T13:13:21.268Z,3588
2017-10-11T13:14:22.687Z,3028
2017-10-11T13:15:24.101Z,2796
2017-10-11T13:16:25.506Z,2720
2017-10-11T13:17:26.910Z,2504
2017-10-11T13:18:28.317Z,2436
2017-10-11T13:19:29.729Z,2260
2017-10-11T13:20:31.150Z,2252
2017-10-11T13:21:32.561Z,2448
2017-10-11T13:22:33.976Z,2344
2017-10-11T13:23:35.390Z,2484
2017-10-11T13:24:36.791Z,2660
2017-10-11T13:25:38.196Z,2504
2017-10-11T13:26:39.607Z,2304
2017-10-11T13:27:41.014Z,2384
2017-10-11T13:28:42.415Z,2580
2017-10-11T13:29:43.827Z,2884
2017-10-11T13:30:45.232Z,3468
2017-10-11T13:31:46.640Z,3844
2017-10-11T13:32:48.045Z,4296
2017-10-11T13:33:49.451Z,4648
2017-10-11T13:34:50.857Z,4604
2017-10-11T13:35:52.262Z,5004
2017-10-11T13:36:53.709Z,5060
2017-10-11T13:37:55.118Z,4620
2017-10-11T13:38:56.532Z,4680
2017-10-11T13:39:57.936Z,5152
2017-10-11T13:40:59.344Z,7160
2017-10-11T13:42:00.751Z,9328
2017-10-11T13:43:02.163Z,9948
2017-10-11T13:44:03.573Z,12784
2017-10-11T13:45:04.976Z,9256
2017-10-11T13:46:06.387Z,7960
2017-10-11T13:47:07.791Z,6976
2017-10-11T13:48:09.230Z,8756
2017-10-11T13:49:10.639Z,8396
2017-10-11T13:50:12.047Z,8036
2017-10-11T13:51:13.454Z,7804
2017-10-11T13:52:14.861Z,7620
2017-10-11T13:53:16.270Z,7024
2017-10-11T13:54:17.685Z,7168
2017-10-11T13:55:19.078Z,8224
2017-10-11T13:56:20.491Z,8724
2017-10-11T13:57:21.900Z,10200
2017-10-11T13:58:23.310Z,12656
2017-10-11T13:59:24.715Z,12228
2017-10-11T14:00:26.126Z,36576
2017-10-11T14:01:27.536Z,27904
2017-10-11T14:02:28.943Z,16160
2017-10-11T14:03:30.352Z,17408
2017-10-11T14:04:31.759Z,12988
2017-10-11T14:05:33.169Z,33344
2017-10-11T14:06:34.604Z,15840
2017-10-11T14:07:36.014Z,12360
2017-10-11T14:08:37.425Z,10844
2017-10-11T14:09:38.832Z,11680
2017-10-11T14:10:40.241Z,12740
2017-10-11T14:11:41.660Z,11220
2017-10-11T14:12:43.072Z,10400
2017-10-11T14:13:44.482Z,11964
2017-10-11T14:14:45.912Z,11032
2017-10-11T14:15:47.329Z,9988
2017-10-11T14:16:48.728Z,9720